»·PEaware :: N611KG KSJC-KRNO

N611KG :: KSJC-KRNO

FLIGHT INFORMATION

Flight Status: Arrived
Operator: Privately registered:
United States
More flights under this callsign
Pilot: Patrick M. (29407)
Aircraft: CIRRUS VISIONJET
(SF50)
More flights by this aircraft type
Origin: KSJC Mineta San Jose Intl
United States
Destination: KRNO Reno/Tahoe Intl
United States
More flights between these airports :: More routes between these airports
Route: +LOUPE4 BMRNG SAC V392 FMG
File this flight plan on PilotEdge
Remarks:
Altitude:
(Current/Filed)
21,000ft
Speed:
(Current/Filed)
265kts
Departed: 08-Nov-20 01:00 PM
Arrived: 08-Nov-20 02:34 PM
Distance/Time
Traveled:
164nm/1:34
Distance/Time
To Go:
Arrived

Flight Plot

Page will automatically refresh every two minutes.

Flight plan parsing failed; only flown route is shown


Map Options




Map Legend


Flown Route
Filed Route
Departure Airport
Arrival Airport
Navaid (VOR, NDB)
Fix

Horizontal Profiles

Position Reports

Time Latitude Longitude Heading Altitude Ground
Speed
08-Nov-20 12:36 37.359249 -121.931014 15 52ft 0kts
08-Nov-20 12:37 37.359249 -121.931014 15 52ft 0kts
08-Nov-20 12:38 37.359249 -121.931014 15 52ft 0kts
08-Nov-20 12:39 37.359249 -121.931014 15 52ft 0kts
08-Nov-20 12:40 37.359249 -121.931014 15 52ft 0kts
08-Nov-20 12:41 37.359249 -121.931014 15 52ft 0kts
08-Nov-20 12:42 37.359249 -121.931014 15 52ft 0kts
08-Nov-20 12:43 37.359249 -121.931014 15 52ft 0kts
08-Nov-20 12:44 37.359249 -121.931014 15 52ft 0kts
08-Nov-20 12:45 37.359249 -121.931014 15 52ft 0kts
08-Nov-20 12:46 37.359249 -121.931014 15 52ft 0kts
08-Nov-20 12:47 37.359249 -121.931014 15 52ft 0kts
08-Nov-20 12:48 37.359249 -121.931014 15 52ft 0kts
08-Nov-20 12:49 37.359249 -121.931014 15 52ft 0kts
08-Nov-20 12:51 37.359249 -121.931014 15 52ft 0kts
08-Nov-20 12:52 37.359249 -121.931014 15 52ft 0kts
08-Nov-20 12:53 37.359249 -121.931014 15 52ft 0kts
08-Nov-20 12:54 37.359249 -121.931014 15 52ft 0kts
08-Nov-20 12:55 37.359322 -121.930305 42 52ft 8kts
08-Nov-20 12:56 37.357336 -121.927435 138 56ft 16kts
08-Nov-20 12:57 37.356583 -121.925169 137 57ft 15kts
08-Nov-20 12:58 37.352071 -121.920064 98 60ft 10kts
08-Nov-20 12:59 37.352686 -121.919122 0 61ft 17kts
08-Nov-20 13:00 37.377038 -121.939321 348 1112ft 166kts
08-Nov-20 13:01 37.429745 -121.949056 350 3623ft 211kts
08-Nov-20 13:02 37.486304 -121.960047 76 6087ft 225kts
08-Nov-20 13:03 37.445170 -121.909493 143 8657ft 224kts
08-Nov-20 13:04 37.401494 -121.853881 134 10941ft 230kts
08-Nov-20 13:05 37.351921 -121.863085 263 13106ft 226kts
08-Nov-20 13:06 37.396278 -121.905488 346 15115ft 227kts
08-Nov-20 13:07 37.437354 -121.912550 358 15816ft 140kts
08-Nov-20 13:07 37.466404 -121.932268 291 14572ft 153kts
08-Nov-20 13:09 37.435049 -121.959204 145 12825ft 156kts
08-Nov-20 13:09 37.407365 -121.930230 137 11663ft 157kts
08-Nov-20 13:11 37.369257 -121.898211 212 10190ft 149kts
08-Nov-20 13:11 37.381625 -121.915392 53 8930ft 152kts
08-Nov-20 13:13 37.359080 -121.870112 143 7561ft 141kts
08-Nov-20 13:13 37.330975 -121.856004 215 6483ft 146kts
08-Nov-20 13:14 37.343979 -121.872551 92 4979ft 145kts
08-Nov-20 13:15 37.326814 -121.885863 310 3615ft 124kts
08-Nov-20 13:16 37.349065 -121.911137 320 1551ft 104kts
08-Nov-20 13:17 37.357151 -121.920561 317 115ft 95kts
08-Nov-20 13:18 37.365908 -121.928559 141 45ft 13kts
08-Nov-20 13:19 37.362059 -121.924400 139 50ft 16kts
08-Nov-20 13:20 37.358836 -121.919789 138 53ft 18kts
08-Nov-20 13:21 37.356928 -121.916731 82 56ft 7kts
08-Nov-20 13:22 37.356876 -121.916653 172 56ft 0kts
08-Nov-20 13:23 37.356876 -121.916653 172 56ft 0kts
08-Nov-20 13:24 37.356876 -121.916653 172 56ft 0kts
08-Nov-20 13:25 37.356876 -121.916653 172 56ft 0kts
08-Nov-20 13:26 37.356876 -121.916653 172 56ft 0kts
08-Nov-20 13:27 37.356876 -121.916653 172 56ft 0kts
08-Nov-20 13:28 37.356772 -121.916631 170 57ft 0kts
08-Nov-20 13:29 37.356772 -121.916631 170 57ft 0kts
08-Nov-20 13:30 37.356772 -121.916631 170 57ft 0kts
08-Nov-20 13:31 37.355078 -121.915737 141 58ft 23kts
08-Nov-20 13:32 37.353065 -121.914511 224 61ft 0kts
08-Nov-20 13:33 37.353065 -121.914511 224 61ft 0kts
08-Nov-20 13:34 37.352729 -121.915419 288 61ft 23kts
08-Nov-20 13:35 37.374311 -121.939753 319 1322ft 142kts
08-Nov-20 13:36 37.414835 -121.961953 13 3903ft 176kts
08-Nov-20 13:37 37.423001 -121.911386 110 6612ft 185kts
08-Nov-20 13:38 37.401967 -121.853427 144 9164ft 189kts
08-Nov-20 13:39 37.365726 -121.875265 281 11374ft 198kts
08-Nov-20 13:40 37.411766 -121.910026 345 13421ft 206kts
08-Nov-20 13:41 37.466894 -121.925351 347 15493ft 204kts
08-Nov-20 13:42 37.521415 -121.940034 347 17485ft 197kts
08-Nov-20 13:43 37.575469 -121.954614 347 18972ft 209kts
08-Nov-20 13:44 37.636358 -121.956038 20 20147ft 229kts
08-Nov-20 13:45 37.697311 -121.926028 21 21003ft 255kts
08-Nov-20 13:46 37.768996 -121.890434 21 21002ft 295kts
08-Nov-20 13:47 37.842124 -121.854782 19 22386ft 226kts
08-Nov-20 13:48 37.902739 -121.819741 28 21893ft 248kts
08-Nov-20 13:49 37.966373 -121.787258 12 21529ft 252kts
08-Nov-20 13:50 38.033535 -121.758262 20 21080ft 259kts
08-Nov-20 13:51 38.099596 -121.725314 21 20999ft 251kts
08-Nov-20 13:52 38.169075 -121.690416 21 21003ft 290kts
08-Nov-20 13:53 38.247250 -121.651055 21 21001ft 312kts
08-Nov-20 13:54 38.329074 -121.609756 21 21000ft 321kts
08-Nov-20 13:55 38.412078 -121.567757 21 20999ft 321kts
08-Nov-20 13:56 38.487241 -121.508361 37 20999ft 319kts
08-Nov-20 13:57 38.557133 -121.438795 37 20999ft 319kts
08-Nov-20 13:58 38.626857 -121.369129 37 20999ft 319kts
08-Nov-20 13:59 38.696640 -121.299228 38 20999ft 319kts
08-Nov-20 14:00 38.766422 -121.229154 38 20999ft 319kts
08-Nov-20 14:01 38.835912 -121.159210 38 20999ft 319kts
08-Nov-20 14:02 38.905506 -121.088985 38 20999ft 318kts
08-Nov-20 14:03 38.964549 -121.028801 39 20991ft 249kts
08-Nov-20 14:04 39.024478 -120.968503 38 21003ft 293kts
08-Nov-20 14:05 39.090907 -120.901030 38 21000ft 312kts
08-Nov-20 14:06 39.159617 -120.831044 38 21000ft 318kts
08-Nov-20 14:07 39.229067 -120.760118 38 21000ft 320kts
08-Nov-20 14:08 39.298918 -120.688622 38 21000ft 321kts
08-Nov-20 14:09 39.353264 -120.600970 72 20999ft 321kts
08-Nov-20 14:10 39.375727 -120.489705 75 20981ft 322kts
08-Nov-20 14:11 39.396508 -120.380430 75 19501ft 304kts
08-Nov-20 14:12 39.416242 -120.275963 76 17999ft 296kts
08-Nov-20 14:13 39.435562 -120.173249 76 16495ft 292kts
08-Nov-20 14:14 39.453776 -120.075891 76 16192ft 272kts
08-Nov-20 14:15 39.471823 -119.978955 76 16192ft 280kts
08-Nov-20 14:16 39.529042 -119.928317 2 15507ft 281kts
08-Nov-20 14:17 39.606474 -119.923059 2 14410ft 279kts
08-Nov-20 14:18 39.683837 -119.917790 2 13308ft 278kts
08-Nov-20 14:19 39.760610 -119.912535 2 12210ft 277kts
08-Nov-20 14:20 39.837290 -119.907262 2 11109ft 275kts
08-Nov-20 14:21 39.913087 -119.902026 2 10012ft 271kts
08-Nov-20 14:22 39.982050 -119.878561 57 9379ft 253kts
08-Nov-20 14:23 39.949097 -119.823376 162 9394ft 234kts
08-Nov-20 14:24 39.886415 -119.803871 167 9391ft 229kts
08-Nov-20 14:25 39.823398 -119.786048 167 9192ft 232kts
08-Nov-20 14:26 39.761383 -119.770612 183 9190ft 224kts
08-Nov-20 14:27 39.698272 -119.769138 179 7884ft 228kts
08-Nov-20 14:28 39.641743 -119.768909 181 7233ft 175kts
08-Nov-20 14:29 39.600577 -119.769385 179 6322ft 124kts
08-Nov-20 14:30 39.568743 -119.769095 179 5627ft 102kts
08-Nov-20 14:31 39.540959 -119.769264 180 5102ft 101kts
08-Nov-20 14:32 39.512955 -119.769224 179 4475ft 98kts
08-Nov-20 14:33 39.497354 -119.768220 90 4419ft 0kts
08-Nov-20 14:34 39.498061 -119.765210 4 4419ft 19kts
08-Nov-20 14:35 39.501869 -119.764945 88 4419ft 4kts

Navigation Log

Ident Type
Flight plan parsing failed, navigation log unavailable